Ljuberzy, Russia
Current Conditions -  °F | °C
As of 12:30 AM on Wednesday 22 Oct 2014 (Local Time) from UUDD Reporting Station
Broken Clouds Broken Clouds  
Wind Chill: 13°   Ceiling: 2000
Heat Index: 27°   Visibility: 6mi
Dew Point: 21°   Wind: 20mph
Humidity: 80%   Direction: 330°NNW
Pressure: 29.62"   Gusts: 31mph
Location:  55.67°N, 37.92°E
Report Text: UUDD 212130Z 33009G14MPS 9999 BKN020 M03/M06 Q1003 WS RWY32R32290095 82290095 NOSIG
Loading
Personal Weather Stations






























Interactive Weather Map
Tropical Storm Tracking
New forecast layout! Learn more

10-Day Weather Forecast

Advertisements
Track Severe Weather on mobile